Cleveland Corner, Vermont
Current Conditions -  °F | °C
As of 7:23 AM on Saturday 25 Oct 2014 (Local Time) from KMVL Reporting Station
Broken Clouds Broken Clouds  
Wind Chill: 31°   Ceiling: 200
Heat Index: 31°   Visibility: 8mi
Dew Point: 30°   Wind: 0mph
Humidity: 96%   Direction: NA
Pressure: 29.78"   Gusts: NA
Location:  44.5482°N, 72.6315°W
Report Text: KMVL 251123Z AUTO 00000KT 8SM BKN002 M01/M01 A2978 RMK AO2 T10061011
Loading
Personal Weather Stations






























Interactive Weather Map
Tropical Storm Tracking
New forecast layout! Learn more

10-Day Weather Forecast

Advertisements
Track Severe Weather on mobile